sensor_id;sensor_type;location;lat;lon;timestamp;pressure;altitude;pressure_sealevel;temperature;humidity
63351;BME280;64988;51.058;17.040;2023-04-10T06:39:29;101165.06;;;14.69;69.80
63351;BME280;64988;51.058;17.040;2023-04-10T06:44:57;101180.88;;;15.18;63.86
63351;BME280;64988;51.058;17.040;2023-04-10T06:50:25;101195.94;;;15.22;62.85
63351;BME280;64988;51.058;17.040;2023-04-10T06:55:52;101196.78;;;15.34;60.62
63351;BME280;64988;51.058;17.040;2023-04-10T07:01:19;101211.69;;;14.96;60.53
63351;BME280;64988;51.058;17.040;2023-04-10T07:06:46;101203.38;;;14.66;60.14
63351;BME280;64988;51.058;17.040;2023-04-10T07:12:13;101212.41;;;15.09;59.87
63351;BME280;64988;51.058;17.040;2023-04-10T07:17:40;101205.03;;;15.43;59.42
63351;BME280;64988;51.058;17.040;2023-04-10T07:23:09;101208.63;;;15.75;58.02
63351;BME280;64988;51.058;17.040;2023-04-10T07:28:37;101202.03;;;16.50;56.79
63351;BME280;64988;51.058;17.040;2023-04-10T07:34:05;101213.19;;;17.17;54.98
63351;BME280;64988;51.058;17.040;2023-04-10T07:39:33;101202.28;;;17.46;52.64
63351;BME280;64988;51.058;17.040;2023-04-10T07:45:01;101204.44;;;17.90;52.28
63351;BME280;64988;51.058;17.040;2023-04-10T07:50:28;101202.13;;;18.14;49.82
63351;BME280;64988;51.058;17.040;2023-04-10T07:55:57;101198.16;;;19.98;47.45
63351;BME280;64988;51.058;17.040;2023-04-10T08:01:25;101204.59;;;21.50;42.71
63351;BME280;64988;51.058;17.040;2023-04-10T08:06:53;101205.31;;;22.01;42.81
63351;BME280;64988;51.058;17.040;2023-04-10T08:12:20;101198.44;;;21.88;40.20
63351;BME280;64988;51.058;17.040;2023-04-10T08:17:48;101195.16;;;23.27;39.21
63351;BME280;64988;51.058;17.040;2023-04-10T08:23:15;101198.47;;;25.81;33.38
63351;BME280;64988;51.058;17.040;2023-04-10T08:28:48;101183.81;;;24.94;33.30
63351;BME280;64988;51.058;17.040;2023-04-10T08:34:16;101183.03;;;24.27;35.43
63351;BME280;64988;51.058;17.040;2023-04-10T08:39:44;101193.03;;;24.72;34.42
63351;BME280;64988;51.058;17.040;2023-04-10T08:45:12;101188.78;;;23.58;35.79
63351;BME280;64988;51.058;17.040;2023-04-10T08:50:41;101194.22;;;23.43;35.99
63351;BME280;64988;51.058;17.040;2023-04-10T08:56:15;101185.66;;;22.99;35.66
63351;BME280;64988;51.058;17.040;2023-04-10T09:01:44;101185.41;;;23.47;35.97
63351;BME280;64988;51.058;17.040;2023-04-10T09:07:13;101179.97;;;23.00;35.10
63351;BME280;64988;51.058;17.040;2023-04-10T09:12:45;101180.19;;;23.75;34.74
63351;BME280;64988;51.058;17.040;2023-04-10T09:18:13;101177.28;;;25.95;31.58
63351;BME280;64988;51.058;17.040;2023-04-10T09:23:42;101173.06;;;27.30;29.09
63351;BME280;64988;51.058;17.040;2023-04-10T09:29:11;101170.72;;;27.27;28.85
63351;BME280;64988;51.058;17.040;2023-04-10T09:34:59;101158.03;;;26.63;29.44
63351;BME280;64988;51.058;17.040;2023-04-10T09:40:27;101149.03;;;26.89;29.98
63351;BME280;64988;51.058;17.040;2023-04-10T09:45:55;101139.50;;;26.64;29.39
63351;BME280;64988;51.058;17.040;2023-04-10T09:51:27;101123.34;;;26.05;30.52
63351;BME280;64988;51.058;17.040;2023-04-10T09:56:57;101118.16;;;26.24;29.10
63351;BME280;64988;51.058;17.040;2023-04-10T10:02:28;101111.31;;;25.92;30.46
63351;BME280;64988;51.058;17.040;2023-04-10T10:07:56;101103.47;;;25.95;31.12
63351;BME280;64988;51.058;17.040;2023-04-10T10:19:18;101100.19;;;25.00;31.42
63351;BME280;64988;51.058;17.040;2023-04-10T10:24:48;101093.47;;;24.30;32.46
63351;BME280;64988;51.058;17.040;2023-04-10T10:30:17;101086.69;;;23.28;33.56
63351;BME280;64988;51.058;17.040;2023-04-10T10:35:59;101084.03;;;23.35;35.38
63351;BME280;64988;51.058;17.040;2023-04-10T10:41:40;101065.38;;;23.82;35.98
63351;BME280;64988;51.058;17.040;2023-04-10T10:47:16;101059.69;;;24.72;32.35
63351;BME280;64988;51.058;17.040;2023-04-10T10:52:55;101047.84;;;25.14;33.24
63351;BME280;64988;51.058;17.040;2023-04-10T10:58:47;101044.94;;;24.50;32.02
63351;BME280;64988;51.058;17.040;2023-04-10T11:04:43;101042.41;;;22.84;34.15
63351;BME280;64988;51.058;17.040;2023-04-10T11:10:12;101040.47;;;22.23;36.01
63351;BME280;64988;51.058;17.040;2023-04-10T11:15:39;101033.69;;;21.95;36.00
63351;BME280;64988;51.058;17.040;2023-04-10T11:21:09;101035.78;;;21.77;37.44
63351;BME280;64988;51.058;17.040;2023-04-10T11:26:40;101022.56;;;21.80;37.95
63351;BME280;64988;51.058;17.040;2023-04-10T11:32:08;101024.38;;;22.43;36.90
63351;BME280;64988;51.058;17.040;2023-04-10T11:37:36;101008.59;;;22.98;36.25
63351;BME280;64988;51.058;17.040;2023-04-10T11:43:13;101007.59;;;24.03;34.08
63351;BME280;64988;51.058;17.040;2023-04-10T11:48:41;101008.56;;;25.18;33.19
63351;BME280;64988;51.058;17.040;2023-04-10T11:54:11;100998.59;;;25.24;30.37
63351;BME280;64988;51.058;17.040;2023-04-10T11:59:38;101000.69;;;24.79;32.62
63351;BME280;64988;51.058;17.040;2023-04-10T12:05:05;101008.03;;;25.29;31.22
63351;BME280;64988;51.058;17.040;2023-04-10T12:10:44;100988.88;;;25.28;31.24
63351;BME280;64988;51.058;17.040;2023-04-10T12:16:13;100992.47;;;25.00;30.88
63351;BME280;64988;51.058;17.040;2023-04-10T12:21:40;100978.78;;;25.14;30.19
63351;BME280;64988;51.058;17.040;2023-04-10T12:27:23;100979.25;;;24.60;32.16
63351;BME280;64988;51.058;17.040;2023-04-10T12:32:54;100969.34;;;25.08;31.73
63351;BME280;64988;51.058;17.040;2023-04-10T12:49:35;100960.28;;;25.97;28.72
63351;BME280;64988;51.058;17.040;2023-04-10T12:55:14;100957.78;;;26.16;29.63
63351;BME280;64988;51.058;17.040;2023-04-10T13:00:41;100948.25;;;25.49;29.31
63351;BME280;64988;51.058;17.040;2023-04-10T13:06:08;100933.91;;;24.69;31.63
63351;BME280;64988;51.058;17.040;2023-04-10T13:11:35;100920.47;;;24.09;31.40
63351;BME280;64988;51.058;17.040;2023-04-10T13:17:03;100915.84;;;23.51;34.04
63351;BME280;64988;51.058;17.040;2023-04-10T13:22:30;100915.59;;;22.63;33.80
63351;BME280;64988;51.058;17.040;2023-04-10T13:27:59;100912.56;;;22.27;33.94
63351;BME280;64988;51.058;17.040;2023-04-10T13:33:28;100896.44;;;21.85;35.37
63351;BME280;64988;51.058;17.040;2023-04-10T13:38:55;100901.47;;;20.94;36.84
63351;BME280;64988;51.058;17.040;2023-04-10T13:44:23;100886.75;;;21.12;38.54
63351;BME280;64988;51.058;17.040;2023-04-10T13:49:51;100872.19;;;20.71;38.82
63351;BME280;64988;51.058;17.040;2023-04-10T13:55:18;100868.22;;;20.41;40.06
63351;BME280;64988;51.058;17.040;2023-04-10T14:00:45;100865.78;;;20.22;40.66
63351;BME280;64988;51.058;17.040;2023-04-10T14:06:13;100857.25;;;20.33;39.06
63351;BME280;64988;51.058;17.040;2023-04-10T14:11:40;100850.41;;;20.29;40.34
63351;BME280;64988;51.058;17.040;2023-04-10T14:17:08;100844.88;;;20.21;40.48
63351;BME280;64988;51.058;17.040;2023-04-10T14:22:37;100834.59;;;20.15;40.13
63351;BME280;64988;51.058;17.040;2023-04-10T14:28:04;100826.31;;;19.82;41.38
63351;BME280;64988;51.058;17.040;2023-04-10T14:33:32;100819.88;;;20.16;41.83
63351;BME280;64988;51.058;17.040;2023-04-10T14:39:01;100819.16;;;20.14;40.15
63351;BME280;64988;51.058;17.040;2023-04-10T14:44:29;100802.31;;;19.84;41.08
63351;BME280;64988;51.058;17.040;2023-04-10T14:49:57;100792.41;;;19.83;41.12
63351;BME280;64988;51.058;17.040;2023-04-10T14:55:25;100786.19;;;19.57;41.95
63351;BME280;64988;51.058;17.040;2023-04-10T15:00:53;100777.19;;;19.39;43.09
63351;BME280;64988;51.058;17.040;2023-04-10T15:06:20;100763.59;;;19.71;40.87
63351;BME280;64988;51.058;17.040;2023-04-10T15:11:48;100768.91;;;19.57;40.85
63351;BME280;64988;51.058;17.040;2023-04-10T15:17:16;100745.81;;;19.67;41.76
63351;BME280;64988;51.058;17.040;2023-04-10T15:22:44;100745.28;;;19.72;40.55
63351;BME280;64988;51.058;17.040;2023-04-10T15:28:12;100738.84;;;19.39;41.71
63351;BME280;64988;51.058;17.040;2023-04-10T15:33:39;100732.13;;;19.17;41.18
63351;BME280;64988;51.058;17.040;2023-04-10T15:39:07;100729.56;;;19.24;42.17
63351;BME280;64988;51.058;17.040;2023-04-10T15:44:34;100719.91;;;18.96;42.66
63351;BME280;64988;51.058;17.040;2023-04-10T15:50:02;100708.94;;;18.62;44.01
63351;BME280;64988;51.058;17.040;2023-04-10T15:55:31;100708.66;;;18.47;44.85
63351;BME280;64988;51.058;17.040;2023-04-10T16:00:59;100696.91;;;18.29;44.97
63351;BME280;64988;51.058;17.040;2023-04-10T16:06:27;100694.50;;;18.26;44.07
63351;BME280;64988;51.058;17.040;2023-04-10T16:11:56;100684.28;;;18.28;44.22
63351;BME280;64988;51.058;17.040;2023-04-10T16:17:24;100677.72;;;17.95;43.43
63351;BME280;64988;51.058;17.040;2023-04-10T16:22:51;100678.63;;;18.04;44.27
63351;BME280;64988;51.058;17.040;2023-04-10T16:28:19;100664.94;;;17.96;44.81
63351;BME280;64988;51.058;17.040;2023-04-10T16:33:49;100655.00;;;17.69;46.21
63351;BME280;64988;51.058;17.040;2023-04-10T16:39:17;100658.06;;;17.39;46.53
63351;BME280;64988;51.058;17.040;2023-04-10T16:44:45;100640.47;;;17.33;46.79
63351;BME280;64988;51.058;17.040;2023-04-10T16:50:12;100629.78;;;17.40;46.97
63351;BME280;64988;51.058;17.040;2023-04-10T16:55:40;100623.00;;;17.26;47.66
63351;BME280;64988;51.058;17.040;2023-04-10T17:01:20;100621.28;;;17.07;47.95
63351;BME280;64988;51.058;17.040;2023-04-10T17:06:47;100614.16;;;16.79;49.09
63351;BME280;64988;51.058;17.040;2023-04-10T17:12:15;100617.94;;;16.68;49.43
63351;BME280;64988;51.058;17.040;2023-04-10T17:17:43;100612.63;;;16.40;50.73
63351;BME280;64988;51.058;17.040;2023-04-10T17:23:10;100628.53;;;15.98;52.75
63351;BME280;64988;51.058;17.040;2023-04-10T17:28:37;100628.72;;;15.67;53.50
63351;BME280;64988;51.058;17.040;2023-04-10T17:34:05;100628.88;;;15.37;54.93
63351;BME280;64988;51.058;17.040;2023-04-10T17:39:33;100622.56;;;15.17;55.74
63351;BME280;64988;51.058;17.040;2023-04-10T17:45:00;100616.09;;;14.90;56.59
63351;BME280;64988;51.058;17.040;2023-04-10T17:50:28;100617.03;;;14.60;57.87
63351;BME280;64988;51.058;17.040;2023-04-10T17:55:56;100623.34;;;14.30;59.04
63351;BME280;64988;51.058;17.040;2023-04-10T18:01:25;100608.13;;;14.18;59.90
63351;BME280;64988;51.058;17.040;2023-04-10T18:06:56;100611.75;;;13.98;60.37
63351;BME280;64988;51.058;17.040;2023-04-10T18:12:24;100610.44;;;13.92;60.28
63351;BME280;64988;51.058;17.040;2023-04-10T18:17:53;100613.16;;;13.72;60.93
63351;BME280;64988;51.058;17.040;2023-04-10T18:23:20;100615.41;;;13.46;61.60
63351;BME280;64988;51.058;17.040;2023-04-10T18:28:50;100613.28;;;13.29;62.05
63351;BME280;64988;51.058;17.040;2023-04-10T18:34:18;100596.06;;;13.19;63.38
63351;BME280;64988;51.058;17.040;2023-04-10T18:39:45;100613.00;;;13.11;63.59
63351;BME280;64988;51.058;17.040;2023-04-10T18:45:13;100613.47;;;13.05;63.70
63351;BME280;64988;51.058;17.040;2023-04-10T18:50:40;100608.81;;;12.96;63.54
63351;BME280;64988;51.058;17.040;2023-04-10T18:56:07;100605.41;;;12.83;63.75
63351;BME280;64988;51.058;17.040;2023-04-10T19:01:35;100599.53;;;12.78;64.40
63351;BME280;64988;51.058;17.040;2023-04-10T19:07:05;100597.59;;;12.69;64.49
63351;BME280;64988;51.058;17.040;2023-04-10T19:12:34;100606.56;;;12.69;64.49
63351;BME280;64988;51.058;17.040;2023-04-10T19:18:02;100589.47;;;12.57;64.62
63351;BME280;64988;51.058;17.040;2023-04-10T19:23:29;100596.25;;;12.52;64.95
63351;BME280;64988;51.058;17.040;2023-04-10T19:28:57;100593.09;;;12.36;64.88
63351;BME280;64988;51.058;17.040;2023-04-10T19:34:25;100585.09;;;12.23;64.91
63351;BME280;64988;51.058;17.040;2023-04-10T19:39:55;100599.75;;;12.09;65.38
63351;BME280;64988;51.058;17.040;2023-04-10T19:45:22;100589.16;;;12.06;64.70
63351;BME280;64988;51.058;17.040;2023-04-10T19:50:53;100594.44;;;11.97;65.91
63351;BME280;64988;51.058;17.040;2023-04-10T19:56:23;100584.09;;;12.02;65.86
63351;BME280;64988;51.058;17.040;2023-04-10T20:01:54;100569.25;;;11.96;65.20
63351;BME280;64988;51.058;17.040;2023-04-10T20:07:21;100575.03;;;11.81;65.61
63351;BME280;64988;51.058;17.040;2023-04-10T20:12:48;100557.94;;;11.80;66.26
63351;BME280;64988;51.058;17.040;2023-04-10T20:18:15;100554.84;;;11.74;66.13
63351;BME280;64988;51.058;17.040;2023-04-10T20:23:42;100550.16;;;11.65;67.05
63351;BME280;64988;51.058;17.040;2023-04-10T20:29:10;100543.31;;;11.72;65.90
63351;BME280;64988;51.058;17.040;2023-04-10T20:34:37;100527.41;;;11.67;65.93
63351;BME280;64988;51.058;17.040;2023-04-10T20:40:05;100517.19;;;11.48;66.87
63351;BME280;64988;51.058;17.040;2023-04-10T20:45:33;100508.47;;;11.45;66.03
63351;BME280;64988;51.058;17.040;2023-04-10T20:51:01;100507.56;;;11.22;66.54
63351;BME280;64988;51.058;17.040;2023-04-10T20:56:28;100497.84;;;11.08;66.76
63351;BME280;64988;51.058;17.040;2023-04-10T21:02:10;100483.13;;;11.13;67.96
63351;BME280;64988;51.058;17.040;2023-04-10T21:07:37;100471.44;;;11.12;66.20
63351;BME280;64988;51.058;17.040;2023-04-10T21:13:04;100461.84;;;10.97;66.61
63351;BME280;64988;51.058;17.040;2023-04-10T21:18:32;100462.56;;;10.88;67.50
63351;BME280;64988;51.058;17.040;2023-04-10T21:23:59;100456.00;;;10.79;67.01
63351;BME280;64988;51.058;17.040;2023-04-10T21:29:28;100457.34;;;10.74;66.30
63351;BME280;64988;51.058;17.040;2023-04-10T21:34:56;100457.03;;;10.54;66.77
63351;BME280;64988;51.058;17.040;2023-04-10T21:40:24;100447.47;;;10.50;69.09
63351;BME280;64988;51.058;17.040;2023-04-10T21:45:52;100440.19;;;10.75;69.31
63351;BME280;64988;51.058;17.040;2023-04-10T21:51:20;100429.41;;;10.75;68.14
63351;BME280;64988;51.058;17.040;2023-04-10T21:56:47;100428.19;;;10.79;68.62
63351;BME280;64988;51.058;17.040;2023-04-10T22:02:15;100427.31;;;10.78;68.05
63351;BME280;64988;51.058;17.040;2023-04-10T22:07:43;100413.81;;;10.78;67.63
63351;BME280;64988;51.058;17.040;2023-04-10T22:13:10;100403.75;;;10.69;66.96
63351;BME280;64988;51.058;17.040;2023-04-10T22:18:54;100394.03;;;10.67;68.35
63351;BME280;64988;51.058;17.040;2023-04-10T22:24:21;100382.50;;;10.65;67.96
63351;BME280;64988;51.058;17.040;2023-04-10T22:29:49;100363.31;;;10.57;67.89
63351;BME280;64988;51.058;17.040;2023-04-10T22:35:29;100358.94;;;10.56;67.22
63351;BME280;64988;51.058;17.040;2023-04-10T22:40:56;100359.75;;;10.45;67.29
63351;BME280;64988;51.058;17.040;2023-04-10T22:46:24;100345.00;;;10.27;66.64
63351;BME280;64988;51.058;17.040;2023-04-10T22:51:52;100340.72;;;10.35;69.71
63351;BME280;64988;51.058;17.040;2023-04-10T22:57:20;100338.16;;;10.45;68.37
63351;BME280;64988;51.058;17.040;2023-04-10T23:02:47;100332.03;;;10.43;68.16
63351;BME280;64988;51.058;17.040;2023-04-10T23:08:16;100327.13;;;10.37;69.17
63351;BME280;64988;51.058;17.040;2023-04-10T23:13:43;100319.03;;;10.37;68.35
63351;BME280;64988;51.058;17.040;2023-04-10T23:19:10;100315.94;;;10.30;68.35
63351;BME280;64988;51.058;17.040;2023-04-10T23:24:37;100311.47;;;10.18;68.49
63351;BME280;64988;51.058;17.040;2023-04-10T23:30:05;100305.78;;;10.10;68.87
63351;BME280;64988;51.058;17.040;2023-04-10T23:35:33;100282.25;;;10.12;68.88
63351;BME280;64988;51.058;17.040;2023-04-10T23:41:01;100266.78;;;10.03;69.71
63351;BME280;64988;51.058;17.040;2023-04-10T23:46:29;100250.84;;;10.00;68.88
63351;BME280;64988;51.058;17.040;2023-04-10T23:51:57;100234.16;;;9.95;68.63
63351;BME280;64988;51.058;17.040;2023-04-10T23:57:24;100214.28;;;9.85;69.42
